San Diego, California
Current Conditions -  °F | °C
As of 1:51 PM on Friday 19 Dec 2014 (Local Time) from KSAN Reporting Station
Scattered Clouds Scattered Clouds  
Wind Chill: 66°   Ceiling: Unl
Heat Index: 66°   Visibility: 10mi
Dew Point: 46°   Wind: 10mph
Humidity: 48%   Direction: 300°WNW
Pressure: 30.18"   Gusts: NA
Location:  32.72°N, 117.16°W
Report Text: KSAN 192151Z 30009KT 10SM FEW030 SCT250 19/08 A3018 RMK AO2 SLP221 T01890078
Loading
Personal Weather Stations






























Interactive Weather Map New forecast layout! Learn more

10-Day Weather Forecast

Advertisements
Track Severe Weather on mobile